| time (UTC) | temp C | wind direction | speed KPH | gust KPH | rain 1hr cm | rain 24hr cm | rain mn cm | humidity % | barometer mb |
| 20260508164730 | 18 | 223 | 6.4 | 17.7 | 0.00 | 0.00 | 0.00 | 57 | 1013.3 |
| 20260508163729 | 19 | 282 | 11.3 | 27.4 | 0.00 | 0.00 | 0.00 | 52 | 1013.5 |
| 20260508162732 | 19 | 272 | 11.3 | 30.6 | 0.00 | 0.00 | 0.00 | 55 | 1013.5 |
| 20260508161729 | 19 | 276 | 6.4 | 17.7 | 0.00 | 0.00 | 0.00 | 55 | 1013.5 |
| 20260508160729 | 18 | 247 | 9.7 | 17.7 | 0.00 | 0.00 | 0.00 | 54 | 1013.4 |
| 20260508155729 | 19 | 234 | 4.8 | 14.5 | 0.00 | 0.00 | 0.00 | 59 | 1013.5 |
| 20260508154729 | 18 | 255 | 6.4 | 14.5 | 0.00 | 0.00 | 0.00 | 57 | 1013.8 |
| 20260508153729 | 17 | 204 | 6.4 | 14.5 | 0.00 | 0.00 | 0.00 | 59 | 1014.0 |
| 20260508152729 | 17 | 228 | 3.2 | 17.7 | 0.00 | 0.00 | 0.00 | 62 | 1014.0 |
| 20260508151729 | 16 | 240 | 6.4 | 30.6 | 0.00 | 0.00 | 0.00 | 59 | 1014.1 |
| 20260508145729 | 16 | 268 | 6.4 | 20.9 | 0.00 | 0.00 | 0.00 | 61 | 1014.5 |
| 20260508144729 | 15 | 217 | 3.2 | 14.5 | 0.00 | 0.00 | 0.00 | 61 | 1014.5 |
| 20260508143730 | 15 | 190 | 3.2 | 9.7 | 0.00 | 0.00 | 0.00 | 62 | 1014.5 |
| 20260508142729 | 15 | 219 | 6.4 | 17.7 | 0.00 | 0.00 | 0.00 | 61 | 1014.5 |
| 20260508141731 | 15 | 241 | 6.4 | 17.7 | 0.00 | 0.00 | 0.00 | 59 | 1014.4 |
| 20260508140731 | 16 | 224 | 4.8 | 17.7 | 0.00 | 0.00 | 0.00 | 58 | 1014.4 |
| 20260508135730 | 16 | 241 | 6.4 | 14.5 | 0.00 | 0.00 | 0.00 | 59 | 1014.5 |
| 20260508133730 | 16 | 247 | 6.4 | 14.5 | 0.00 | 0.00 | 0.00 | 60 | 1014.5 |
| 20260508132730 | 15 | 226 | 0.0 | 0.0 | 0.00 | 0.00 | 0.00 | 61 | 1014.5 |
| 20260508131730 | 15 | 227 | 0.0 | 0.0 | 0.00 | 0.00 | 0.00 | 64 | 1014.5 |
| 20260508130730 | 14 | 228 | 0.0 | 0.0 | 0.00 | 0.00 | 0.00 | 66 | 1014.7 |
| 20260508125729 | 13 | 164 | 0.0 | 0.0 | 0.00 | 0.00 | 0.00 | 68 | 1014.6 |
| 20260508122729 | 10 | 165 | 0.0 | 0.0 | 0.00 | 0.00 | 0.00 | 72 | 1014.7 |
| 20260508121728 | 10 | 159 | 0.0 | 0.0 | 0.00 | 0.00 | 0.00 | 80 | 1014.6 |
| 20260508120728 | 8 | 134 | 0.0 | 0.0 | 0.00 | 0.00 | 0.00 | 84 | 1014.6 |
| 20260508115728 | 7 | 133 | 0.0 | 3.2 | 0.00 | 0.00 | 0.00 | 86 | 1014.6 |
| 20260508114728 | 6 | 109 | 0.0 | 0.0 | 0.00 | 0.00 | 0.00 | 88 | 1014.6 |
| 20260508113729 | 6 | 109 | 0.0 | 0.0 | 0.00 | 0.00 | 0.00 | 89 | 1014.5 |
| 20260508112728 | 5 | 109 | 0.0 | 0.0 | 0.00 | 0.00 | 0.00 | 89 | 1014.2 |
| 20260508111727 | 5 | 109 | 0.0 | 0.0 | 0.00 | 0.00 | 0.00 | 90 | 1014.4 |
| 20260508110727 | 5 | 109 | 0.0 | 0.0 | 0.00 | 0.00 | 0.00 | 90 | 1014.1 |
| 20260508105726 | 4 | 109 | 0.0 | 0.0 | 0.00 | 0.00 | 0.00 | 91 | 1014.1 |
| 20260508104726 | 3 | 109 | 0.0 | 0.0 | 0.00 | 0.00 | 0.00 | 91 | 1014.1 |
| 20260508103727 | 3 | 109 | 0.0 | 0.0 | 0.00 | 0.00 | 0.00 | 90 | 1014.0 |
| 20260508102726 | 3 | 109 | 0.0 | 0.0 | 0.00 | 0.00 | 0.00 | 89 | 1013.9 |
| 20260508101726 | 3 | 109 | 0.0 | 0.0 | 0.00 | 0.00 | 0.00 | 89 | 1013.8 |
| 20260508100726 | 3 | 109 | 0.0 | 0.0 | 0.00 | 0.00 | 0.00 | 89 | 1013.6 |
| 20260508095726 | 3 | 109 | 0.0 | 0.0 | 0.00 | 0.00 | 0.00 | 88 | 1013.6 |
| 20260508094726 | 3 | 109 | 0.0 | 0.0 | 0.00 | 0.00 | 0.00 | 88 | 1013.7 |
| 20260508093725 | 4 | 109 | 0.0 | 0.0 | 0.00 | 0.00 | 0.00 | 87 | 1013.8 |
| 20260508091725 | 4 | 109 | 0.0 | 0.0 | 0.00 | 0.00 | 0.00 | 87 | 1013.8 |
| 20260508090724 | 5 | 109 | 0.0 | 0.0 | 0.00 | 0.00 | 0.00 | 86 | 1013.9 |
| 20260508084723 | 5 | 109 | 0.0 | 0.0 | 0.00 | 0.00 | 0.00 | 85 | 1013.8 |
| 20260508083723 | 5 | 109 | 0.0 | 0.0 | 0.00 | 0.00 | 0.00 | 83 | 1013.8 |
| 20260508082723 | 6 | 109 | 0.0 | 0.0 | 0.00 | 0.00 | 0.00 | 82 | 1013.8 |
| 20260508081723 | 6 | 109 | 0.0 | 0.0 | 0.00 | 0.00 | 0.00 | 81 | 1013.8 |
| 20260508080723 | 6 | 109 | 0.0 | 3.2 | 0.00 | 0.00 | 0.00 | 81 | 1013.8 |
| 20260508075720 | 6 | 109 | 0.0 | 3.2 | 0.00 | 0.00 | 0.00 | 79 | 1013.9 |
| 20260508074722 | 7 | 109 | 0.0 | 0.0 | 0.00 | 0.00 | 0.00 | 80 | 1013.9 |
| 20260508073722 | 7 | 158 | 0.0 | 0.0 | 0.00 | 0.00 | 0.00 | 79 | 1013.8 |
| 20260508072722 | 7 | 158 | 0.0 | 0.0 | 0.00 | 0.00 | 0.00 | 80 | 1013.8 |
| 20260508071722 | 8 | 168 | 0.0 | 14.5 | 0.00 | 0.00 | 0.00 | 79 | 1013.9 |
| 20260508070720 | 7 | 354 | 0.0 | 3.2 | 0.00 | 0.00 | 0.00 | 79 | 1014.4 |
| 20260508065721 | 7 | 217 | 0.0 | 0.0 | 0.00 | 0.00 | 0.00 | 80 | 1014.0 |
| 20260508064722 | 7 | 217 | 0.0 | 0.0 | 0.00 | 0.00 | 0.00 | 81 | 1013.9 |
| 20260508063718 | 7 | 217 | 0.0 | 0.0 | 0.00 | 0.00 | 0.00 | 81 | 1014.0 |
| 20260508061720 | 7 | 217 | 0.0 | 0.0 | 0.00 | 0.00 | 0.00 | 81 | 1013.9 |
| 20260508060721 | 7 | 217 | 0.0 | 0.0 | 0.00 | 0.00 | 0.00 | 82 | 1013.9 |
| 20260508055720 | 7 | 217 | 0.0 | 3.2 | 0.00 | 0.00 | 0.00 | 82 | 1014.0 |
| 20260508053719 | 6 | 251 | 0.0 | 0.0 | 0.00 | 0.00 | 0.00 | 87 | 1014.0 |
| 20260508052720 | 5 | 251 | 0.0 | 0.0 | 0.00 | 0.00 | 0.00 | 86 | 1014.2 |
| 20260508051717 | 5 | 251 | 0.0 | 0.0 | 0.00 | 0.00 | 0.00 | 86 | 1014.1 |
| 20260508050717 | 6 | 251 | 0.0 | 0.0 | 0.00 | 0.00 | 0.00 | 87 | 1014.1 |
| 20260508045718 | 6 | 251 | 0.0 | 0.0 | 0.00 | 0.00 | 0.00 | 88 | 1014.2 |
| 20260508044719 | 6 | 251 | 0.0 | 0.0 | 0.00 | 0.00 | 0.00 | 89 | 1014.2 |
| 20260508043719 | 5 | 251 | 0.0 | 0.0 | 0.00 | 0.00 | 0.00 | 88 | 1014.4 |
| 20260508041719 | 5 | 251 | 0.0 | 0.0 | 0.00 | 0.00 | 0.00 | 88 | 1014.2 |
| 20260508040718 | 5 | 251 | 0.0 | 0.0 | 0.00 | 0.00 | 0.00 | 88 | 1014.2 |
| 20260508033717 | 5 | 251 | 0.0 | 0.0 | 0.00 | 0.00 | 0.00 | 87 | 1014.1 |
| 20260508032716 | 5 | 251 | 0.0 | 0.0 | 0.00 | 0.00 | 0.00 | 86 | 1014.1 |
| 20260508031717 | 5 | 251 | 0.0 | 0.0 | 0.00 | 0.00 | 0.00 | 86 | 1014.0 |
| 20260508030717 | 5 | 251 | 0.0 | 0.0 | 0.00 | 0.00 | 0.00 | 86 | 1014.1 |
| 20260508025716 | 5 | 251 | 0.0 | 0.0 | 0.00 | 0.00 | 0.00 | 86 | 1014.4 |
| 20260508024716 | 5 | 251 | 0.0 | 0.0 | 0.00 | 0.00 | 0.00 | 85 | 1014.1 |
| 20260508023716 | 6 | 251 | 0.0 | 0.0 | 0.00 | 0.00 | 0.00 | 84 | 1014.2 |
| 20260508022716 | 6 | 251 | 0.0 | 0.0 | 0.00 | 0.00 | 0.00 | 84 | 1014.2 |
| 20260508021716 | 6 | 251 | 0.0 | 0.0 | 0.00 | 0.00 | 0.00 | 83 | 1014.1 |
| 20260508015715 | 6 | 251 | 0.0 | 0.0 | 0.00 | 0.00 | 0.00 | 79 | 1014.2 |
| 20260508014715 | 6 | 251 | 0.0 | 0.0 | 0.00 | 0.00 | 0.00 | 76 | 1014.2 |
| 20260508013714 | 7 | 251 | 0.0 | 0.0 | 0.00 | 0.00 | 0.00 | 75 | 1014.2 |
| 20260508012715 | 7 | 251 | 0.0 | 0.0 | 0.00 | 0.00 | 0.00 | 73 | 1014.1 |
| 20260508011715 | 7 | 251 | 0.0 | 0.0 | 0.00 | 0.00 | 0.00 | 74 | 1014.0 |
| 20260508010714 | 8 | 251 | 0.0 | 0.0 | 0.00 | 0.00 | 0.00 | 73 | 1014.1 |
| 20260508005715 | 8 | 251 | 0.0 | 0.0 | 0.00 | 0.00 | 0.00 | 69 | 1013.9 |
| 20260508003713 | 10 | 251 | 0.0 | 0.0 | 0.00 | 0.00 | 0.00 | 66 | 1013.7 |
| 20260508002713 | 11 | 251 | 0.0 | 0.0 | 0.00 | 0.00 | 0.00 | 63 | 1013.8 |
| 20260508001713 | 12 | 251 | 0.0 | 6.4 | 0.00 | 0.00 | 0.00 | 59 | 1013.7 |
| 20260508000713 | 12 | 262 | 0.0 | 0.0 | 0.00 | 0.00 | 0.00 | 55 | 1013.6 |
| 20260507235712 | 13 | 271 | 0.0 | 3.2 | 0.00 | 0.00 | 0.00 | 55 | 1013.5 |
| 20260507234713 | 13 | 250 | 0.0 | 9.7 | 0.00 | 0.00 | 0.00 | 49 | 1013.4 |
| 20260507233712 | 14 | 197 | 3.2 | 24.1 | 0.00 | 0.00 | 0.00 | 48 | 1013.5 |
| 20260507232711 | 15 | 240 | 3.2 | 20.9 | 0.00 | 0.00 | 0.00 | 46 | 1013.3 |
| 20260507231711 | 15 | 278 | 3.2 | 20.9 | 0.00 | 0.00 | 0.00 | 46 | 1013.3 |
| 20260507230712 | 15 | 221 | 6.4 | 17.7 | 0.00 | 0.00 | 0.00 | 46 | 1013.3 |
| 20260507225712 | 15 | 295 | 6.4 | 20.9 | 0.00 | 0.00 | 0.00 | 45 | 1013.4 |
| 20260507223706 | 16 | 300 | 6.4 | 24.1 | 0.00 | 0.00 | 0.00 | 42 | 1013.6 |
| 20260507222704 | 16 | 251 | 8.0 | 20.9 | 0.00 | 0.00 | 0.00 | 43 | 1013.7 |
| 20260507221701 | 16 | 259 | 12.9 | 24.1 | 0.00 | 0.00 | 0.00 | 44 | 1013.6 |
| 20260507220702 | 16 | 333 | 6.4 | 20.9 | 0.00 | 0.00 | 0.00 | 45 | 1013.6 |
| 20260507215711 | 15 | 234 | 4.8 | 24.1 | 0.00 | 0.00 | 0.00 | 46 | 1013.6 |
| 20260507214704 | 15 | 240 | 6.4 | 24.1 | 0.00 | 0.00 | 0.00 | 44 | 1013.5 |
| 20260507211704 | 15 | 293 | 6.4 | 20.9 | 0.00 | 0.00 | 0.00 | 48 | 1013.3 |
| 20260507210702 | 15 | 13 | 4.8 | 27.4 | 0.00 | 0.00 | 0.00 | 47 | 1013.3 |
| 20260507205703 | 16 | 303 | 9.7 | 37.0 | 0.00 | 0.00 | 0.00 | 48 | 1013.3 |
| 20260507204703 | 16 | 264 | 11.3 | 30.6 | 0.00 | 0.00 | 0.00 | 46 | 1013.1 |
| 20260507203704 | 16 | 261 | 11.3 | 27.4 | 0.00 | 0.00 | 0.00 | 52 | 1013.2 |
| 20260507202702 | 16 | 234 | 11.3 | 30.6 | 0.00 | 0.00 | 0.00 | 48 | 1013.0 |
| 20260507201703 | 15 | 245 | 14.5 | 27.4 | 0.00 | 0.00 | 0.00 | 51 | 1013.0 |
| 20260507200702 | 15 | 244 | 9.7 | 24.1 | 0.00 | 0.00 | 0.00 | 49 | 1013.3 |
| 20260507195703 | 15 | 290 | 9.7 | 27.4 | 0.00 | 0.00 | 0.00 | 48 | 1013.3 |
| 20260507194703 | 15 | 199 | 9.7 | 30.6 | 0.00 | 0.00 | 0.00 | 54 | 1013.3 |
| 20260507193702 | 15 | 52 | 12.9 | 30.6 | 0.00 | 0.00 | 0.00 | 50 | 1013.5 |
| 20260507192702 | 15 | 341 | 14.5 | 41.8 | 0.00 | 0.00 | 0.00 | 51 | 1013.4 |
| 20260507191703 | 15 | 228 | 16.1 | 27.4 | 0.00 | 0.00 | 0.00 | 48 | 1013.4 |
| 20260507190702 | 15 | 327 | 9.7 | 27.4 | 0.00 | 0.00 | 0.00 | 55 | 1013.7 |
| 20260507185702 | 15 | 6 | 11.3 | 33.8 | 0.00 | 0.00 | 0.00 | 51 | 1013.5 |
| 20260507184701 | 15 | 276 | 8.0 | 24.1 | 0.00 | 0.00 | 0.00 | 53 | 1013.5 |
| 20260507183704 | 15 | 302 | 9.7 | 30.6 | 0.00 | 0.00 | 0.00 | 52 | 1013.6 |
| 20260507182704 | 15 | 321 | 11.3 | 27.4 | 0.00 | 0.00 | 0.00 | 55 | 1013.6 |
| 20260507181704 | 15 | 271 | 6.4 | 33.8 | 0.00 | 0.00 | 0.00 | 50 | 1013.7 |
| 20260507180702 | 15 | 285 | 4.8 | 24.1 | 0.00 | 0.00 | 0.00 | 57 | 1013.7 |
| 20260507175702 | 15 | 299 | 9.7 | 24.1 | 0.00 | 0.00 | 0.00 | 53 | 1013.7 |
| 20260507174702 | 14 | 230 | 6.4 | 24.1 | 0.00 | 0.00 | 0.00 | 51 | 1013.7 |
| 20260507173704 | 14 | 7 | 14.5 | 37.0 | 0.00 | 0.00 | 0.00 | 49 | 1013.9 |
| 20260507172702 | 14 | 305 | 9.7 | 45.1 | 0.00 | 0.00 | 0.00 | 55 | 1014.1 |
| 20260507171703 | 14 | 266 | 11.3 | 30.6 | 0.00 | 0.00 | 0.00 | 48 | 1014.2 |
| 20260507170703 | 14 | 305 | 6.4 | 24.1 | 0.00 | 0.00 | 0.00 | 49 | 1014.4 |
| 20260507165702 | 14 | 13 | 11.3 | 30.6 | 0.00 | 0.00 | 0.00 | 48 | 1014.4 |